Time;durP1;ratioP1;P1;durP2;ratioP2;P2;SDS_P1;SDS_P2;PMS_P1;PMS_P2;Temp;Humidity;BMP_temperature;BMP_pressure;BME280_temperature;BME280_humidity;BME280_pressure;Samples;Min_cycle;Max_cycle;Signal;HPM_P1;HPM_P2
2023/05/28 00:00:26;;;;;;;11.52;4.47;;;13.40;99.90;;;;;;5011724;28;20080;-77
2023/05/28 00:02:52;;;;;;;13.30;4.47;;;13.40;99.90;;;;;;5012638;28;20052;-77
2023/05/28 00:05:17;;;;;;;13.27;4.03;;;13.40;99.90;;;;;;5030952;28;20038;-78
2023/05/28 00:07:43;;;;;;;13.02;4.30;;;13.40;99.90;;;;;;5012227;28;20033;-77
2023/05/28 00:10:09;;;;;;;14.32;4.28;;;13.40;99.90;;;;;;5030201;28;20045;-77
2023/05/28 00:12:34;;;;;;;13.77;4.50;;;13.40;99.90;;;;;;5030324;28;20429;-77
2023/05/28 00:15:00;;;;;;;12.80;4.13;;;13.30;99.90;;;;;;5029622;28;20139;-77
2023/05/28 00:17:26;;;;;;;8.52;3.67;;;13.40;99.90;;;;;;5012770;28;20113;-77
2023/05/28 00:19:51;;;;;;;11.80;4.28;;;13.30;99.90;;;;;;5011226;28;20045;-77
2023/05/28 00:22:17;;;;;;;9.38;3.70;;;13.40;99.90;;;;;;5010907;28;20041;-77
2023/05/28 00:24:42;;;;;;;10.05;3.88;;;13.30;99.90;;;;;;5012738;28;20463;-77
2023/05/28 00:27:08;;;;;;;9.93;4.38;;;13.30;99.90;;;;;;5012002;28;20060;-77
2023/05/28 00:29:33;;;;;;;11.13;4.25;;;13.20;99.90;;;;;;5012378;28;20413;-77
2023/05/28 00:31:59;;;;;;;12.05;3.85;;;13.20;99.90;;;;;;5012588;28;20416;-77
2023/05/28 00:34:25;;;;;;;12.68;4.50;;;13.20;99.90;;;;;;5012577;28;20072;-77
2023/05/28 00:36:52;;;;;;;9.75;3.53;;;13.20;99.90;;;;;;5030098;28;20045;-77
2023/05/28 00:39:18;;;;;;;11.07;3.95;;;13.20;99.90;;;;;;5012345;28;20141;-77
2023/05/28 00:41:44;;;;;;;9.25;3.85;;;13.10;99.90;;;;;;5010440;28;20072;-77
2023/05/28 00:44:10;;;;;;;10.35;3.75;;;13.20;99.90;;;;;;5012310;28;20082;-77
2023/05/28 00:46:44;;;;;;;12.23;4.45;;;13.20;99.90;;;;;;5012483;28;20037;-77
2023/05/28 00:49:10;;;;;;;11.05;4.40;;;13.10;99.90;;;;;;5029036;28;20400;-77
2023/05/28 00:51:36;;;;;;;8.68;3.53;;;13.10;99.90;;;;;;5011693;28;20044;-77
2023/05/28 00:54:03;;;;;;;9.13;3.53;;;13.10;99.90;;;;;;5011952;28;20045;-77
2023/05/28 00:56:31;;;;;;;8.68;3.75;;;13.20;99.90;;;;;;5012189;28;20172;-77
2023/05/28 00:58:59;;;;;;;13.63;4.32;;;13.00;99.90;;;;;;5009451;28;20045;-77
2023/05/28 01:01:26;;;;;;;11.48;3.72;;;13.00;99.90;;;;;;5012187;28;20045;-77
2023/05/28 01:03:51;;;;;;;11.73;4.10;;;13.00;99.90;;;;;;5010833;28;20091;-77
2023/05/28 01:06:20;;;;;;;9.30;3.78;;;13.00;99.90;;;;;;5028762;28;20033;-76
2023/05/28 01:08:47;;;;;;;14.38;4.20;;;13.00;99.90;;;;;;5011128;28;20049;-78
2023/05/28 01:11:16;;;;;;;10.77;4.10;;;13.00;99.90;;;;;;5029229;28;20661;-77
2023/05/28 01:13:42;;;;;;;12.95;4.70;;;13.00;99.90;;;;;;5008680;28;20041;-77
2023/05/28 01:16:09;;;;;;;12.80;4.25;;;12.90;99.90;;;;;;5011604;28;20046;-77
2023/05/28 01:18:37;;;;;;;11.40;3.90;;;12.90;99.90;;;;;;5011327;28;20115;-77
2023/05/28 01:21:03;;;;;;;11.52;3.88;;;12.80;99.90;;;;;;5029657;28;20041;-77
2023/05/28 01:23:32;;;;;;;9.30;3.70;;;12.80;99.90;;;;;;5010828;28;20088;-77
2023/05/28 01:25:59;;;;;;;13.55;4.30;;;12.80;99.90;;;;;;5012186;28;20068;-77
2023/05/28 01:28:25;;;;;;;9.73;3.67;;;12.70;99.90;;;;;;5026154;28;20401;-77
2023/05/28 01:30:52;;;;;;;10.30;3.70;;;12.70;99.90;;;;;;5028377;28;20050;-77
2023/05/28 01:33:18;;;;;;;11.38;3.88;;;12.70;99.90;;;;;;5011720;28;20033;-76
2023/05/28 01:35:44;;;;;;;10.07;3.95;;;12.60;99.90;;;;;;5011830;28;20528;-77
2023/05/28 01:38:11;;;;;;;9.50;3.90;;;12.60;99.90;;;;;;5029228;28;20045;-77
2023/05/28 01:40:41;;;;;;;12.32;3.90;;;12.40;99.90;;;;;;5028459;28;20128;-77
2023/05/28 01:43:07;;;;;;;10.75;3.83;;;12.40;99.90;;;;;;5011585;28;20037;-77
2023/05/28 01:45:33;;;;;;;10.65;3.75;;;12.30;99.90;;;;;;5011760;28;20056;-77
2023/05/28 01:47:59;;;;;;;12.63;3.65;;;12.20;99.90;;;;;;5029505;28;20072;-77
2023/05/28 01:50:25;;;;;;;9.02;3.53;;;12.20;99.90;;;;;;5010030;28;20069;-77
2023/05/28 01:52:51;;;;;;;11.20;3.85;;;12.10;99.90;;;;;;5009810;28;20049;-77
2023/05/28 01:55:16;;;;;;;11.98;3.92;;;12.10;99.90;;;;;;5027920;28;20035;-77
2023/05/28 01:57:42;;;;;;;9.73;3.95;;;12.20;99.90;;;;;;5011441;28;20044;-77
2023/05/28 02:00:09;;;;;;;9.73;3.63;;;12.30;99.90;;;;;;5011562;28;20041;-77
2023/05/28 02:02:35;;;;;;;7.78;3.45;;;12.30;99.90;;;;;;5014460;28;20417;-77
2023/05/28 02:05:01;;;;;;;9.02;3.88;;;12.40;99.90;;;;;;5015140;28;20041;-77
2023/05/28 02:07:26;;;;;;;11.60;3.92;;;12.40;99.90;;;;;;5014326;28;20048;-77
2023/05/28 02:09:52;;;;;;;10.88;3.90;;;12.30;99.90;;;;;;5014436;28;20413;-77
2023/05/28 02:12:18;;;;;;;12.98;4.40;;;12.40;99.90;;;;;;5014748;28;20599;-77
2023/05/28 02:14:47;;;;;;;17.73;4.45;;;12.50;99.90;;;;;;5014917;28;20097;-78
2023/05/28 02:17:13;;;;;;;10.98;3.78;;;12.50;99.90;;;;;;5015817;28;20049;-77
2023/05/28 02:19:38;;;;;;;13.27;4.40;;;12.50;99.90;;;;;;5013424;28;20227;-77
2023/05/28 02:22:10;;;;;;;10.00;4.00;;;12.50;99.90;;;;;;5013617;28;20112;-77
2023/05/28 02:24:36;;;;;;;8.63;3.70;;;12.50;99.90;;;;;;5015741;28;20068;-77
2023/05/28 02:27:03;;;;;;;13.10;3.92;;;12.50;99.90;;;;;;5031811;28;20046;-78
2023/05/28 02:29:29;;;;;;;11.00;3.85;;;12.50;99.90;;;;;;5014487;28;20138;-77
2023/05/28 02:31:55;;;;;;;15.23;5.07;;;12.50;99.90;;;;;;5015368;28;20356;-77
2023/05/28 02:34:20;;;;;;;11.00;4.30;;;12.50;99.90;;;;;;5014236;28;20516;-77
2023/05/28 02:36:46;;;;;;;8.80;3.95;;;12.50;99.90;;;;;;5031302;28;20037;-77
2023/05/28 02:39:11;;;;;;;10.50;4.15;;;12.40;99.90;;;;;;5015099;28;20088;-77
2023/05/28 02:41:37;;;;;;;13.40;4.55;;;12.40;99.90;;;;;;5013757;28;20033;-77
2023/05/28 02:44:02;;;;;;;12.52;4.18;;;12.40;99.90;;;;;;4997700;28;20040;-77
2023/05/28 02:46:28;;;;;;;9.27;4.22;;;12.30;99.90;;;;;;5013937;28;20087;-78
2023/05/28 02:48:54;;;;;;;11.05;4.28;;;12.00;99.90;;;;;;5031789;28;20056;-77
2023/05/28 02:51:19;;;;;;;13.73;4.07;;;11.90;99.90;;;;;;5032193;28;20033;-76
2023/05/28 02:53:45;;;;;;;9.15;4.18;;;11.80;99.90;;;;;;5014058;28;20080;-77
2023/05/28 02:56:13;;;;;;;9.98;3.83;;;11.90;99.90;;;;;;5012772;28;20030;-77
2023/05/28 02:58:39;;;;;;;10.73;4.32;;;12.00;99.90;;;;;;5031021;28;20401;-77
2023/05/28 03:01:06;;;;;;;10.30;4.63;;;11.90;99.90;;;;;;5013063;28;20044;-78
2023/05/28 03:03:31;;;;;;;11.02;4.03;;;11.90;99.90;;;;;;5013800;28;20041;-77
2023/05/28 03:05:57;;;;;;;12.18;4.07;;;11.90;99.90;;;;;;5012778;28;20040;-77
2023/05/28 03:08:23;;;;;;;17.80;4.60;;;11.90;99.90;;;;;;5031615;28;20037;-77
2023/05/28 03:10:48;;;;;;;10.68;4.00;;;12.00;99.90;;;;;;5031471;28;20038;-77
2023/05/28 03:13:14;;;;;;;10.15;4.00;;;12.00;99.90;;;;;;5012837;28;20128;-77
2023/05/28 03:15:39;;;;;;;9.05;3.95;;;12.00;99.90;;;;;;5026913;28;20095;-77
2023/05/28 03:18:05;;;;;;;9.43;3.97;;;12.00;99.90;;;;;;5012527;28;20129;-77
2023/05/28 03:20:31;;;;;;;11.65;4.55;;;11.90;99.90;;;;;;5032094;28;20072;-78
2023/05/28 03:22:57;;;;;;;10.32;4.10;;;11.80;99.90;;;;;;5013090;28;20134;-78
2023/05/28 03:25:26;;;;;;;12.77;4.50;;;11.80;99.90;;;;;;5013952;28;20117;-77
2023/05/28 03:27:52;;;;;;;10.70;4.68;;;11.80;99.90;;;;;;5031136;28;20029;-77
2023/05/28 03:30:18;;;;;;;10.35;4.10;;;11.80;99.90;;;;;;5012418;28;20045;-77
2023/05/28 03:32:44;;;;;;;9.27;4.43;;;11.80;99.90;;;;;;5031291;28;20041;-77
2023/05/28 03:35:10;;;;;;;11.90;4.47;;;11.80;99.90;;;;;;5030889;28;20157;-77
2023/05/28 03:37:36;;;;;;;10.60;4.18;;;11.70;99.90;;;;;;5011645;28;20044;-78
2023/05/28 03:40:04;;;;;;;8.40;4.30;;;11.70;99.90;;;;;;5013283;28;20499;-77
2023/05/28 03:42:29;;;;;;;10.13;4.40;;;11.70;99.90;;;;;;5013262;28;20037;-77
2023/05/28 03:44:55;;;;;;;15.00;4.95;;;11.70;99.90;;;;;;5013190;28;20045;-77
2023/05/28 03:47:21;;;;;;;12.25;4.22;;;11.70;99.90;;;;;;5013230;28;20063;-77
2023/05/28 03:49:47;;;;;;;9.32;3.63;;;11.70;99.90;;;;;;5031373;28;20421;-77
2023/05/28 03:52:12;;;;;;;11.05;4.35;;;11.70;99.90;;;;;;5013012;28;20044;-77
2023/05/28 03:54:38;;;;;;;11.45;4.00;;;11.70;99.90;;;;;;5030975;28;20034;-77
2023/05/28 03:57:04;;;;;;;13.95;4.03;;;11.70;99.90;;;;;;5013301;28;20489;-77
2023/05/28 03:59:29;;;;;;;10.63;4.00;;;11.70;99.90;;;;;;5030317;28;20485;-77
2023/05/28 04:01:55;;;;;;;14.15;4.22;;;11.60;99.90;;;;;;5030021;28;20037;-77
2023/05/28 04:04:20;;;;;;;14.82;4.70;;;11.60;99.90;;;;;;5012485;28;20041;-77
2023/05/28 04:06:46;;;;;;;12.00;4.63;;;11.70;99.90;;;;;;5011849;28;20132;-77
2023/05/28 04:09:11;;;;;;;9.68;4.13;;;11.70;99.90;;;;;;5011855;28;20076;-77
2023/05/28 04:11:38;;;;;;;11.02;4.20;;;11.70;99.90;;;;;;5012662;28;20460;-76
2023/05/28 04:14:04;;;;;;;10.10;3.90;;;11.60;99.90;;;;;;5013127;28;20129;-78
2023/05/28 04:16:31;;;;;;;10.40;3.75;;;11.60;99.90;;;;;;5012004;28;20436;-77
2023/05/28 04:18:56;;;;;;;11.50;4.25;;;11.50;99.90;;;;;;5012679;28;20037;-77
2023/05/28 04:21:23;;;;;;;14.05;4.10;;;11.50;99.90;;;;;;5030370;28;20029;-77
2023/05/28 04:23:49;;;;;;;12.25;4.03;;;11.50;99.90;;;;;;5011173;28;20409;-77
2023/05/28 04:26:16;;;;;;;12.45;4.40;;;11.60;99.90;;;;;;5011967;28;20048;-77
2023/05/28 04:28:41;;;;;;;9.73;4.32;;;11.60;99.90;;;;;;5012285;28;20135;-77
2023/05/28 04:31:08;;;;;;;13.48;4.50;;;11.70;99.90;;;;;;5030073;28;20037;-77
2023/05/28 04:33:33;;;;;;;12.48;4.10;;;11.80;99.90;;;;;;5012367;28;20049;-77
2023/05/28 04:36:01;;;;;;;8.70;3.88;;;11.80;99.90;;;;;;5012781;28;20041;-77
2023/05/28 04:38:33;;;;;;;7.20;3.70;;;11.90;99.90;;;;;;5028676;28;20060;-77
2023/05/28 04:41:00;;;;;;;9.90;4.20;;;11.90;99.90;;;;;;5012412;28;20034;-77
2023/05/28 04:43:26;;;;;;;10.52;3.67;;;12.00;99.90;;;;;;5011344;28;20056;-77
2023/05/28 04:45:53;;;;;;;10.50;4.40;;;12.10;99.90;;;;;;5009516;28;20413;-77
2023/05/28 04:48:19;;;;;;;9.55;3.75;;;12.10;99.90;;;;;;5010113;28;20037;-77
2023/05/28 04:50:45;;;;;;;10.98;4.43;;;12.20;99.90;;;;;;5011930;28;20053;-77
2023/05/28 04:53:10;;;;;;;12.32;4.00;;;12.30;99.90;;;;;;5012113;28;20033;-77
2023/05/28 04:55:36;;;;;;;10.30;3.92;;;12.40;99.90;;;;;;5012198;28;20044;-77
2023/05/28 04:58:02;;;;;;;14.77;4.30;;;12.40;99.90;;;;;;5026689;28;20069;-77
2023/05/28 05:00:28;;;;;;;13.40;4.72;;;12.40;99.90;;;;;;5029281;28;20485;-78
2023/05/28 05:02:54;;;;;;;11.35;4.35;;;12.50;99.90;;;;;;5010357;28;20074;-77
2023/05/28 05:05:20;;;;;;;12.75;4.88;;;12.50;99.90;;;;;;5010483;28;20485;-77
2023/05/28 05:07:46;;;;;;;9.73;4.10;;;12.60;99.90;;;;;;5010950;28;20053;-77
2023/05/28 05:10:11;;;;;;;9.57;4.25;;;12.60;99.90;;;;;;5010962;28;20045;-77
2023/05/28 05:12:37;;;;;;;10.73;4.60;;;12.60;99.90;;;;;;5011555;28;20041;-77
2023/05/28 05:15:05;;;;;;;11.15;3.58;;;12.50;99.90;;;;;;5008418;28;20045;-77
2023/05/28 05:17:31;;;;;;;11.30;3.85;;;12.50;99.90;;;;;;5008550;28;20405;-78
2023/05/28 05:19:57;;;;;;;8.18;3.65;;;12.40;99.90;;;;;;5009275;28;20120;-78
2023/05/28 05:22:23;;;;;;;10.73;4.05;;;12.40;99.90;;;;;;5029586;28;20041;-77
2023/05/28 05:24:49;;;;;;;9.05;3.70;;;12.50;99.90;;;;;;5028189;28;20128;-78
2023/05/28 05:27:15;;;;;;;11.63;4.28;;;12.50;99.90;;;;;;5029344;28;20037;-77
2023/05/28 05:29:41;;;;;;;7.82;3.72;;;12.70;99.90;;;;;;5011847;28;20616;-77
2023/05/28 05:32:08;;;;;;;12.20;4.80;;;13.00;99.90;;;;;;5029649;28;20116;-78
2023/05/28 05:34:33;;;;;;;10.80;3.95;;;13.20;99.90;;;;;;5010471;28;20042;-77
2023/05/28 05:36:59;;;;;;;13.40;4.38;;;13.40;99.90;;;;;;5010500;28;20037;-78
2023/05/28 05:39:25;;;;;;;13.05;4.10;;;13.60;99.90;;;;;;5015585;28;20049;-77
2023/05/28 05:41:51;;;;;;;10.48;4.38;;;13.80;99.90;;;;;;5015972;28;20045;-78
2023/05/28 05:44:16;;;;;;;11.10;3.95;;;13.90;99.90;;;;;;5031491;28;20064;-78
2023/05/28 05:46:42;;;;;;;13.45;4.25;;;14.10;99.90;;;;;;5032769;28;20047;-77
2023/05/28 05:49:09;;;;;;;11.07;4.38;;;14.20;99.90;;;;;;5014871;28;20038;-77
2023/05/28 05:51:35;;;;;;;9.73;3.85;;;14.30;99.90;;;;;;5013724;28;20108;-77
2023/05/28 05:54:02;;;;;;;11.20;4.28;;;14.50;99.90;;;;;;5014538;28;20425;-78
2023/05/28 05:56:27;;;;;;;10.02;4.13;;;14.60;99.90;;;;;;5030955;28;20033;-78
2023/05/28 05:58:53;;;;;;;12.43;3.65;;;14.70;99.90;;;;;;5011456;28;20049;-78
2023/05/28 06:01:20;;;;;;;11.55;4.32;;;14.80;99.90;;;;;;5014024;28;20038;-77
2023/05/28 06:03:46;;;;;;;8.73;3.67;;;14.90;99.90;;;;;;5029510;28;20442;-78
2023/05/28 06:06:12;;;;;;;10.02;3.95;;;15.00;99.90;;;;;;5010598;28;20041;-78
2023/05/28 06:08:39;;;;;;;10.85;4.22;;;15.10;99.90;;;;;;5013700;28;20045;-78
2023/05/28 06:11:04;;;;;;;9.88;4.10;;;15.30;99.90;;;;;;5032452;28;20069;-78
2023/05/28 06:13:31;;;;;;;11.85;4.10;;;15.40;99.90;;;;;;5014518;28;20527;-78
2023/05/28 06:15:57;;;;;;;12.55;4.10;;;15.40;99.90;;;;;;5013263;28;20034;-77
2023/05/28 06:18:23;;;;;;;11.90;4.85;;;15.60;99.90;;;;;;4996676;28;20037;-78
2023/05/28 06:20:49;;;;;;;7.90;4.43;;;15.60;99.90;;;;;;5030734;28;20053;-78
2023/05/28 06:23:15;;;;;;;7.90;4.13;;;15.70;99.90;;;;;;5032579;28;20087;-77
2023/05/28 06:25:43;;;;;;;10.48;4.03;;;15.70;99.90;;;;;;5014430;28;20052;-77
2023/05/28 06:28:10;;;;;;;10.02;4.05;;;15.90;99.90;;;;;;5014525;28;20041;-78
2023/05/28 06:30:35;;;;;;;12.80;4.60;;;16.00;99.90;;;;;;5014631;28;20386;-79
2023/05/28 06:33:01;;;;;;;11.23;4.47;;;16.10;99.90;;;;;;5014506;28;20068;-78
2023/05/28 06:35:26;;;;;;;9.43;4.28;;;16.20;99.90;;;;;;5014032;28;20095;-78
2023/05/28 06:37:52;;;;;;;11.30;4.35;;;16.30;99.90;;;;;;5013747;28;20049;-78
2023/05/28 06:40:18;;;;;;;10.50;4.55;;;16.40;99.90;;;;;;5032740;28;20046;-78
2023/05/28 06:42:43;;;;;;;10.25;3.80;;;16.50;99.90;;;;;;5015249;28;20483;-78
2023/05/28 06:45:09;;;;;;;8.15;4.07;;;16.50;99.90;;;;;;5015824;28;20059;-79
2023/05/28 06:47:35;;;;;;;10.43;4.30;;;16.50;99.90;;;;;;4998348;28;20133;-79
2023/05/28 06:50:01;;;;;;;9.88;3.80;;;16.60;99.90;;;;;;5032728;28;20440;-78
2023/05/28 06:52:27;;;;;;;11.90;4.57;;;16.60;99.90;;;;;;5014998;28;20041;-79
2023/05/28 06:54:52;;;;;;;10.82;4.25;;;16.70;99.90;;;;;;5014999;28;20045;-78
2023/05/28 06:57:18;;;;;;;8.43;3.80;;;16.80;99.90;;;;;;5015226;28;20056;-79
2023/05/28 06:59:44;;;;;;;10.23;4.30;;;16.90;99.90;;;;;;5032330;28;20045;-77
2023/05/28 07:02:10;;;;;;;13.10;4.63;;;16.90;99.90;;;;;;5015103;28;20037;-79
2023/05/28 07:04:36;;;;;;;10.18;4.18;;;16.90;99.90;;;;;;5032433;28;20042;-78
2023/05/28 07:07:01;;;;;;;10.23;3.90;;;17.00;99.90;;;;;;5014940;28;20041;-78
2023/05/28 07:09:27;;;;;;;8.77;3.35;;;17.10;99.90;;;;;;5014552;28;20049;-79
2023/05/28 07:11:52;;;;;;;9.20;3.80;;;17.20;99.90;;;;;;5014750;28;20060;-78
2023/05/28 07:14:18;;;;;;;11.23;3.78;;;17.20;99.90;;;;;;5014692;28;20041;-78
2023/05/28 07:16:44;;;;;;;9.25;3.80;;;17.40;99.90;;;;;;5014319;28;20049;-78
2023/05/28 07:19:09;;;;;;;9.52;4.00;;;17.50;99.90;;;;;;5014511;28;20042;-78
2023/05/28 07:21:37;;;;;;;8.48;3.88;;;17.60;99.90;;;;;;5014301;28;20041;-79
2023/05/28 07:24:05;;;;;;;9.80;3.92;;;17.70;99.90;;;;;;5032232;28;20045;-78
2023/05/28 07:26:30;;;;;;;11.20;4.25;;;17.80;99.90;;;;;;5008968;28;20083;-78
2023/05/28 07:28:56;;;;;;;8.15;3.50;;;17.90;99.90;;;;;;5030769;28;20424;-78
2023/05/28 07:31:22;;;;;;;8.77;3.67;;;18.00;99.90;;;;;;5012696;28;20405;-78
2023/05/28 07:33:48;;;;;;;8.50;3.63;;;18.00;99.90;;;;;;5011494;28;20053;-77
2023/05/28 07:36:14;;;;;;;8.38;3.55;;;18.10;99.90;;;;;;5012484;28;20084;-78
2023/05/28 07:38:40;;;;;;;9.80;4.18;;;18.00;99.90;;;;;;5029671;28;20334;-78
2023/05/28 07:41:05;;;;;;;8.45;4.25;;;18.10;99.90;;;;;;5012373;28;20041;-78
2023/05/28 07:43:31;;;;;;;9.70;3.90;;;18.20;99.90;;;;;;5012589;28;20091;-78
2023/05/28 07:45:56;;;;;;;10.05;3.92;;;18.20;99.90;;;;;;5030845;28;20580;-78
2023/05/28 07:48:22;;;;;;;7.95;3.72;;;18.30;99.90;;;;;;5012764;28;20451;-78
2023/05/28 07:50:49;;;;;;;14.52;4.25;;;18.30;99.90;;;;;;5012533;28;20037;-79
2023/05/28 07:53:16;;;;;;;10.38;4.03;;;18.40;99.90;;;;;;5008099;28;20573;-77
2023/05/28 07:55:42;;;;;;;6.82;3.28;;;18.50;99.90;;;;;;5011302;28;20136;-77
2023/05/28 07:58:07;;;;;;;9.02;4.05;;;18.60;99.90;;;;;;5011286;28;20111;-78
2023/05/28 08:00:33;;;;;;;8.48;3.90;;;18.70;99.90;;;;;;5010006;28;20045;-77
2023/05/28 08:02:58;;;;;;;7.72;3.45;;;18.80;99.90;;;;;;5011092;28;20624;-76
2023/05/28 08:05:24;;;;;;;7.95;3.50;;;18.80;99.90;;;;;;5010188;28;20037;-78
2023/05/28 08:07:49;;;;;;;8.45;3.30;;;18.80;99.90;;;;;;5030309;28;20129;-77
2023/05/28 08:10:15;;;;;;;7.53;3.22;;;18.90;99.90;;;;;;5004435;28;20042;-77
2023/05/28 08:12:40;;;;;;;9.20;3.55;;;19.00;99.90;;;;;;5008644;28;20433;-77
2023/05/28 08:15:06;;;;;;;6.95;3.40;;;19.10;99.90;;;;;;5028776;28;20469;-77
2023/05/28 08:17:32;;;;;;;8.32;3.55;;;19.00;99.90;;;;;;5012364;28;20394;-77
2023/05/28 08:19:58;;;;;;;5.22;3.00;;;19.00;99.90;;;;;;5007077;28;20041;-77
2023/05/28 08:22:23;;;;;;;9.20;3.40;;;19.10;99.90;;;;;;5030701;28;20524;-76
2023/05/28 08:24:49;;;;;;;7.55;2.85;;;19.10;99.90;;;;;;5030377;28;20551;-77
2023/05/28 08:27:14;;;;;;;5.65;2.70;;;19.20;99.90;;;;;;5009020;28;20049;-77
2023/05/28 08:29:40;;;;;;;5.47;3.20;;;19.20;99.90;;;;;;5004031;28;20551;-77
2023/05/28 08:32:06;;;;;;;5.80;3.20;;;19.10;99.90;;;;;;5003880;28;20045;-77
2023/05/28 08:34:34;;;;;;;8.20;3.42;;;19.20;99.90;;;;;;5007241;28;20061;-77
2023/05/28 08:37:00;;;;;;;7.68;3.33;;;19.30;99.90;;;;;;4993972;28;20045;-77
2023/05/28 08:39:26;;;;;;;7.82;3.83;;;19.30;99.90;;;;;;5011422;28;20585;-76
2023/05/28 08:41:52;;;;;;;6.90;3.88;;;19.30;99.90;;;;;;5012550;28;20527;-76
2023/05/28 08:44:19;;;;;;;5.50;3.10;;;19.30;99.90;;;;;;5004286;28;20445;-76
2023/05/28 08:46:45;;;;;;;8.50;3.90;;;19.30;99.90;;;;;;5010293;28;20053;-77
2023/05/28 08:49:13;;;;;;;6.05;3.90;;;19.30;99.90;;;;;;5009229;28;20041;-76
2023/05/28 08:51:40;;;;;;;8.02;3.90;;;19.40;99.90;;;;;;5020879;28;20104;-76
2023/05/28 08:54:08;;;;;;;6.93;3.75;;;19.40;99.90;;;;;;5011089;28;20100;-76
2023/05/28 08:56:34;;;;;;;8.07;3.58;;;19.40;99.90;;;;;;5012422;28;20037;-76
2023/05/28 08:59:01;;;;;;;8.75;4.28;;;19.40;99.90;;;;;;5014452;28;20050;-76
2023/05/28 09:01:27;;;;;;;8.80;4.65;;;19.40;99.90;;;;;;5029404;28;20042;-76
2023/05/28 09:03:53;;;;;;;7.43;4.07;;;19.50;99.90;;;;;;5012479;28;20042;-76
2023/05/28 09:06:20;;;;;;;7.82;4.32;;;19.40;99.90;;;;;;5012545;28;20040;-77
2023/05/28 09:08:45;;;;;;;9.20;4.18;;;19.50;99.90;;;;;;5012575;28;20572;-76
2023/05/28 09:11:13;;;;;;;7.15;4.63;;;19.70;99.90;;;;;;5013886;28;20113;-77
2023/05/28 09:13:46;;;;;;;8.68;4.47;;;19.60;99.90;;;;;;5013682;28;20053;-76
2023/05/28 09:16:23;;;;;;;10.15;5.20;;;19.50;99.90;;;;;;5016716;28;20038;-76
2023/05/28 09:18:50;;;;;;;8.50;5.00;;;19.30;99.90;;;;;;5032938;28;20038;-75
2023/05/28 09:21:18;;;;;;;8.02;4.30;;;19.20;99.90;;;;;;5013929;28;20500;-76
2023/05/28 09:23:45;;;;;;;9.45;4.93;;;19.10;99.90;;;;;;5011185;28;20549;-76
2023/05/28 09:26:11;;;;;;;9.70;5.70;;;19.20;99.90;;;;;;5003546;28;20117;-76
2023/05/28 09:28:41;;;;;;;8.73;5.05;;;19.40;99.90;;;;;;5025543;28;20452;-75
2023/05/28 09:31:07;;;;;;;10.68;5.00;;;19.50;99.90;;;;;;5016383;28;20037;-76
2023/05/28 09:33:33;;;;;;;7.65;5.10;;;19.60;99.90;;;;;;5016412;28;20053;-76
2023/05/28 09:36:00;;;;;;;9.60;4.90;;;19.60;99.90;;;;;;5034105;28;20444;-75
2023/05/28 09:38:27;;;;;;;9.38;4.85;;;19.70;99.90;;;;;;5016077;28;20056;-75
2023/05/28 09:40:55;;;;;;;9.02;5.25;;;19.70;99.90;;;;;;5015923;28;20050;-75
2023/05/28 09:43:30;;;;;;;8.70;5.07;;;19.90;99.90;;;;;;5016169;28;20037;-75
2023/05/28 09:46:07;;;;;;;9.68;4.82;;;20.00;99.90;;;;;;5015711;28;20079;-75
2023/05/28 09:48:33;;;;;;;8.68;5.32;;;19.90;99.90;;;;;;5034031;28;20440;-76
2023/05/28 09:51:02;;;;;;;7.50;4.97;;;19.90;99.90;;;;;;5033677;28;20116;-76
2023/05/28 09:53:33;;;;;;;10.45;5.32;;;20.00;99.90;;;;;;5033825;28;20045;-76
2023/05/28 09:56:00;;;;;;;8.77;5.00;;;20.00;99.90;;;;;;5015964;28;20038;-75
2023/05/28 09:58:31;;;;;;;12.45;5.60;;;20.10;99.90;;;;;;5033463;28;20040;-75
2023/05/28 10:01:00;;;;;;;9.55;5.40;;;20.20;99.90;;;;;;5033478;28;20052;-75
2023/05/28 10:03:36;;;;;;;9.63;5.68;;;20.10;99.70;;;;;;5015480;28;20080;-75
2023/05/28 10:06:08;;;;;;;8.75;5.38;;;20.20;99.90;;;;;;5026567;28;20033;-75
2023/05/28 10:08:38;;;;;;;8.52;5.35;;;20.30;99.90;;;;;;5006725;28;20563;-75
2023/05/28 10:11:08;;;;;;;10.15;5.72;;;20.30;99.50;;;;;;5029089;28;20476;-73
2023/05/28 10:13:34;;;;;;;11.45;6.20;;;20.30;99.40;;;;;;5015127;28;20120;-72
2023/05/28 10:16:00;;;;;;;9.13;6.00;;;20.40;99.10;;;;;;5013877;28;20076;-73
2023/05/28 10:18:27;;;;;;;12.07;7.55;;;20.30;98.20;;;;;;5015685;28;20033;-74
2023/05/28 10:20:53;;;;;;;11.48;6.68;;;20.40;97.50;;;;;;5031798;28;20041;-73
2023/05/28 10:23:20;;;;;;;10.10;7.35;;;20.40;96.30;;;;;;5013612;28;20037;-73
2023/05/28 10:25:47;;;;;;;9.35;6.03;;;20.40;95.00;;;;;;5033707;28;20052;-76
2023/05/28 10:28:16;;;;;;;7.88;5.63;;;20.60;95.60;;;;;;5015958;28;20045;-75
2023/05/28 10:30:42;;;;;;;8.15;5.32;;;20.60;94.80;;;;;;5012555;28;20045;-76
2023/05/28 10:33:11;;;;;;;8.95;5.20;;;20.80;94.60;;;;;;5014040;28;20081;-76
2023/05/28 10:35:54;;;;;;;7.28;4.82;;;20.80;94.80;;;;;;5013252;28;20068;-76
2023/05/28 10:38:20;;;;;;;5.88;3.80;;;20.80;92.20;;;;;;5014801;28;20033;-76
2023/05/28 10:40:46;;;;;;;6.88;4.10;;;20.80;94.90;;;;;;5015621;28;20041;-76
2023/05/28 10:43:38;;;;;;;10.73;4.55;;;20.90;94.70;;;;;;5014072;28;20040;-76
2023/05/28 10:46:08;;;;;;;7.68;4.00;;;20.80;93.30;;;;;;5021868;28;20049;-76
2023/05/28 10:48:41;;;;;;;6.10;3.70;;;20.90;93.50;;;;;;5015316;28;20092;-75
2023/05/28 10:51:07;;;;;;;6.70;4.03;;;20.90;94.10;;;;;;4991913;28;20131;-75
2023/05/28 10:53:33;;;;;;;6.55;3.13;;;21.10;93.60;;;;;;5032953;28;20116;-76
2023/05/28 10:56:01;;;;;;;6.57;3.53;;;21.10;93.70;;;;;;5015219;28;20413;-76
2023/05/28 10:58:37;;;;;;;7.07;3.03;;;21.20;93.20;;;;;;5031913;28;20029;-76
2023/05/28 11:12:07;;;;;;;6.00;2.47;;;21.60;94.10;;;;;;5025290;28;20052;-76
2023/05/28 11:14:37;;;;;;;4.25;2.10;;;21.80;94.50;;;;;;4998236;28;20440;-77
2023/05/28 11:17:09;;;;;;;5.40;2.20;;;21.80;94.50;;;;;;5017991;28;20069;-77
2023/05/28 11:19:46;;;;;;;6.93;2.70;;;22.00;94.40;;;;;;5026635;28;20129;-77
2023/05/28 11:22:12;;;;;;;6.32;2.50;;;22.10;94.00;;;;;;5011776;28;20041;-77
2023/05/28 11:24:51;;;;;;;5.55;2.47;;;22.10;94.00;;;;;;5020697;28;20045;-76
2023/05/28 11:27:17;;;;;;;7.22;2.70;;;22.20;93.90;;;;;;5021248;28;20124;-76
2023/05/28 11:29:42;;;;;;;5.95;2.70;;;22.20;94.60;;;;;;5008574;28;20485;-77
2023/05/28 11:32:08;;;;;;;11.43;2.55;;;22.20;94.50;;;;;;5014847;28;20052;-77
2023/05/28 11:34:36;;;;;;;6.32;2.85;;;22.40;94.60;;;;;;5022782;28;20473;-76
2023/05/28 11:37:05;;;;;;;7.05;2.85;;;22.40;95.10;;;;;;5008453;28;20112;-76
2023/05/28 11:39:30;;;;;;;5.38;2.47;;;22.50;95.40;;;;;;5013451;28;20048;-77
2023/05/28 11:41:56;;;;;;;7.53;3.00;;;22.70;95.80;;;;;;5006232;28;20045;-78
2023/05/28 11:44:22;;;;;;;7.75;3.20;;;22.80;95.70;;;;;;5011643;28;20045;-76
2023/05/28 11:46:55;;;;;;;7.85;3.50;;;22.90;95.60;;;;;;5028145;28;20068;-76
2023/05/28 11:49:21;;;;;;;7.80;2.83;;;22.80;95.10;;;;;;5011691;28;20042;-77
2023/05/28 11:51:47;;;;;;;10.25;3.17;;;22.70;95.50;;;;;;5007210;28;20081;-79
2023/05/28 11:54:13;;;;;;;7.20;2.80;;;22.90;95.80;;;;;;5009389;28;20049;-77
2023/05/28 11:56:49;;;;;;;7.90;3.13;;;22.90;96.10;;;;;;5127128;27;20813;-75
2023/05/28 11:59:16;;;;;;;7.80;2.97;;;23.10;96.20;;;;;;5123386;27;20044;-76
2023/05/28 12:01:42;;;;;;;6.10;3.00;;;23.10;96.10;;;;;;5124444;27;20035;-76
2023/05/28 12:04:07;;;;;;;5.97;2.80;;;23.20;96.00;;;;;;5123079;28;20528;-77
2023/05/28 12:06:33;;;;;;;8.43;3.33;;;23.40;95.90;;;;;;5125231;28;20035;-77
2023/05/28 12:09:08;;;;;;;7.75;3.00;;;23.20;95.90;;;;;;5097570;28;20031;-77
2023/05/28 12:11:34;;;;;;;8.50;3.08;;;23.40;96.20;;;;;;5109619;28;20100;-76
2023/05/28 12:14:12;;;;;;;7.32;3.38;;;23.50;96.70;;;;;;5124215;28;20033;-76
2023/05/28 12:16:47;;;;;;;7.57;3.50;;;23.50;96.70;;;;;;5098715;28;20071;-76
2023/05/28 12:19:16;;;;;;;7.90;3.00;;;23.20;96.80;;;;;;5094190;28;20035;-77
2023/05/28 12:21:43;;;;;;;7.95;3.45;;;23.50;97.00;;;;;;5112790;28;20044;-75
2023/05/28 12:24:15;;;;;;;5.28;2.63;;;23.50;96.60;;;;;;5122207;28;20043;-76
2023/05/28 12:26:44;;;;;;;9.40;3.00;;;23.40;96.50;;;;;;5102150;28;20092;-76
2023/05/28 12:29:10;;;;;;;6.45;3.05;;;23.40;96.70;;;;;;5103125;28;20057;-77
2023/05/28 12:31:36;;;;;;;7.63;2.97;;;23.50;97.10;;;;;;5102163;28;20067;-76
2023/05/28 12:34:02;;;;;;;10.77;3.30;;;23.60;97.50;;;;;;5118741;28;20055;-76
2023/05/28 12:36:27;;;;;;;8.88;3.30;;;23.70;96.80;;;;;;5103545;28;20039;-75
2023/05/28 12:38:53;;;;;;;11.45;3.67;;;23.70;97.20;;;;;;5113931;28;20035;-75
2023/05/28 12:41:20;;;;;;;7.13;2.70;;;23.50;96.80;;;;;;5119825;28;20041;-75
2023/05/28 12:43:45;;;;;;;8.65;3.05;;;23.00;96.80;;;;;;5122451;28;20089;-76
2023/05/28 12:46:11;;;;;;;11.13;3.08;;;23.10;97.40;;;;;;5119938;28;20031;-75
2023/05/28 12:48:36;;;;;;;8.13;2.80;;;23.40;97.70;;;;;;5103058;28;20146;-74
2023/05/28 12:51:03;;;;;;;10.88;3.72;;;23.20;97.40;;;;;;5094208;28;20096;-76